Wetterdaten: aktuell Montag, 04.05.2026 18:05
Datum Zeit Arbeit-Z. Temp. A. Bod.+5cm Temp. A. min Temp. A. max Bl.Temp +1m BTemp -5cm BTemp -10cm BTemp -20cm BTemp -50cm Feuchte I. Feuchte A. BlattFeu +1m BFeucht -5cm BFeucht-10cm BFeucht-20cm BFeucht-50cm Luftdruck Regen Wind Richtung Richtung Sonnenschein ET UV Solar Taupunkt Windchill Windböen Empfang
04.05.2026 18:05 23,0 °C 20,3 °C 18,9 °C 20,3 °C 20,3 °C 16,1 °C 16,1 °C 15,6 °C 15,0 °C 13,9 °C 44 % 58 % 0 lf 200 cb 200 cb 156 cb 86 cb 1009,9 hPa 0,0 l/m² 0,6 km/h (0 Bft) W 275 ° 25 min 0,102 mm 0,0 UV-I 70 W/m² 11,8 °C 20,3 °C 1,6 km/h (1 Bft) 89,08 %
04.05.2026 17:05 23,1 °C 20,9 °C 20,0 °C 20,8 °C 20,9 °C 16,1 °C 16,1 °C 15,6 °C 15,0 °C 13,9 °C 43 % 53 % 0 lf 200 cb 200 cb 156 cb 86 cb 1009,9 hPa 0,0 l/m² 1,8 km/h (1 Bft) W-SW 245 ° 60 min 0,152 mm 0,7 UV-I 162 W/m² 11,0 °C 20,9 °C 4,8 km/h (1 Bft) 98,37 %
04.05.2026 16:05 23,1 °C 21,1 °C 20,6 °C 21,1 °C 21,2 °C 16,1 °C 16,1 °C 15,0 °C 15,0 °C 13,9 °C 45 % 50 % 0 lf 200 cb 200 cb 156 cb 86 cb 1010,1 hPa 0,0 l/m² 2,9 km/h (1 Bft) N 355 ° 60 min 0,204 mm 1,3 UV-I 248 W/m² 10,3 °C 21,1 °C 8,0 km/h (2 Bft) 97,52 %
04.05.2026 15:05 23,1 °C 22,2 °C 22,8 °C 22,2 °C 22,3 °C 15,6 °C 15,6 °C 15,0 °C 15,0 °C 13,9 °C 44 % 47 % 0 lf 200 cb 200 cb 155 cb 86 cb 1010,4 hPa 0,0 l/m² 5,3 km/h (1 Bft) W-NW 290 ° 60 min 0,355 mm 2,6 UV-I 490 W/m² 10,3 °C 22,2 °C 12,9 km/h (3 Bft) 94,92 %
04.05.2026 14:05 23,0 °C 21,7 °C 22,2 °C 21,2 °C 21,8 °C 15,6 °C 15,6 °C 15,0 °C 15,0 °C 13,9 °C 45 % 47 % 0 lf 200 cb 200 cb 155 cb 86 cb 1010,8 hPa 0,0 l/m² 3,6 km/h (1 Bft) N-NW 330 ° 60 min 0,279 mm 3,5 UV-I 636 W/m² 9,9 °C 21,7 °C 6,4 km/h (2 Bft) 95,00 %
04.05.2026 13:05 22,9 °C 20,3 °C 20,6 °C 20,1 °C 20,3 °C 15,0 °C 15,0 °C 15,0 °C 15,0 °C 13,9 °C 46 % 55 % 0 lf 200 cb 200 cb 155 cb 85 cb 1011,2 hPa 0,0 l/m² 1,7 km/h (1 Bft) W 277 ° 60 min 0,203 mm 2,3 UV-I 380 W/m² 11,0 °C 20,3 °C 4,8 km/h (1 Bft) 98,25 %
04.05.2026 12:05 22,8 °C 18,4 °C 18,3 °C 18,3 °C 18,4 °C 14,4 °C 14,4 °C 15,0 °C 15,0 °C 13,9 °C 46 % 66 % 0 lf 200 cb 200 cb 154 cb 85 cb 1011,6 hPa 0,0 l/m² 1,0 km/h (0 Bft) N-NW 342 ° 60 min 0,152 mm 1,5 UV-I 279 W/m² 11,9 °C 18,4 °C 3,2 km/h (1 Bft) 93,16 %
04.05.2026 11:05 22,8 °C 17,2 °C 17,2 °C 17,1 °C 17,2 °C 14,4 °C 14,4 °C 15,0 °C 15,0 °C 13,9 °C 43 % 68 % 0 lf 200 cb 200 cb 153 cb 85 cb 1011,9 hPa 0,0 l/m² 0,7 km/h (0 Bft) SO 142 ° 45 min 0,102 mm 1,5 UV-I 301 W/m² 11,2 °C 17,2 °C 3,2 km/h (1 Bft) 91,94 %
04.05.2026 10:05 22,8 °C 16,4 °C 15,6 °C 16,4 °C 16,4 °C 14,4 °C 14,4 °C 15,0 °C 15,0 °C 13,9 °C 43 % 69 % 0 lf 200 cb 200 cb 153 cb 85 cb 1011,9 hPa 0,0 l/m² 2,1 km/h (1 Bft) W-SW 250 ° 35 min 0,101 mm 0,6 UV-I 144 W/m² 10,7 °C 16,4 °C 4,8 km/h (1 Bft) 97,60 %
04.05.2026 09:05 22,8 °C 16,2 °C 15,0 °C 16,1 °C 16,2 °C 13,9 °C 13,9 °C 15,0 °C 15,0 °C 13,9 °C 42 % 66 % 0 lf 200 cb 200 cb 152 cb 85 cb 1011,3 hPa 0,0 l/m² 1,4 km/h (1 Bft) N-NW 329 ° 30 min 0,077 mm 0,6 UV-I 151 W/m² 9,8 °C 16,2 °C 3,2 km/h (1 Bft) 95,41 %
04.05.2026 08:05 22,9 °C 14,4 °C 13,3 °C 14,3 °C 14,4 °C 13,9 °C 13,9 °C 15,0 °C 15,0 °C 13,9 °C 43 % 71 % 0 lf 200 cb 200 cb 150 cb 85 cb 1011,5 hPa 0,0 l/m² 0,6 km/h (0 Bft) N-NW 343 ° 0 min 0,050 mm 0,0 UV-I 132 W/m² 9,2 °C 14,4 °C 3,2 km/h (1 Bft) 96,40 %
04.05.2026 07:05 22,9 °C 12,6 °C 11,1 °C 12,2 °C 12,6 °C 13,3 °C 13,3 °C 15,6 °C 15,0 °C 13,9 °C 44 % 76 % 0 lf 200 cb 200 cb 149 cb 85 cb 1011,6 hPa 0,0 l/m² 0,9 km/h (0 Bft) O-SO 109 ° 0 min 0,026 mm 0,0 UV-I 83 W/m² 8,5 °C 12,6 °C 3,2 km/h (1 Bft) 98,29 %
04.05.2026 06:05 22,9 °C 10,9 °C 9,4 °C 10,9 °C 11,0 °C 13,9 °C 13,9 °C 15,6 °C 15,6 °C 13,9 °C 44 % 80 % 0 lf 200 cb 200 cb 149 cb 85 cb 1011,5 hPa 0,0 l/m² 0,1 km/h (0 Bft) O-SO 114 ° 0 min 0,000 mm 0,0 UV-I 0 W/m² 7,6 °C 10,9 °C 1,6 km/h (1 Bft) 97,58 %
04.05.2026 05:05 22,9 °C 11,2 °C 10,0 °C 11,1 °C 11,2 °C 13,9 °C 13,9 °C 15,6 °C 15,6 °C 13,9 °C 44 % 80 % 0 lf 200 cb 200 cb 147 cb 84 cb 1011,7 hPa 0,0 l/m² 0,5 km/h (0 Bft) O-SO 123 ° 0 min 0,000 mm 0,0 UV-I 0 W/m² 7,9 °C 11,2 °C 3,2 km/h (1 Bft) 99,07 %
04.05.2026 04:05 23,1 °C 10,6 °C 9,4 °C 10,6 °C 10,7 °C 14,4 °C 14,4 °C 16,1 °C 15,6 °C 13,9 °C 44 % 85 % 0 lf 200 cb 200 cb 146 cb 84 cb 1011,7 hPa 0,0 l/m² 1,4 km/h (1 Bft) SO 145 ° 0 min 0,000 mm 0,0 UV-I 0 W/m² 8,2 °C 10,6 °C 3,2 km/h (1 Bft) 92,86 %
04.05.2026 03:05 23,0 °C 11,4 °C 10,6 °C 11,4 °C 11,6 °C 15,0 °C 15,0 °C 16,1 °C 15,6 °C 13,9 °C 44 % 83 % 0 lf 200 cb 200 cb 144 cb 84 cb 1011,7 hPa 0,0 l/m² 0,5 km/h (0 Bft) S-SO 164 ° 0 min 0,025 mm 0,0 UV-I 0 W/m² 8,6 °C 11,4 °C 1,6 km/h (1 Bft) 98,36 %
04.05.2026 02:05 23,1 °C 13,3 °C 11,7 °C 13,3 °C 13,4 °C 15,6 °C 15,6 °C 16,1 °C 15,6 °C 13,9 °C 44 % 79 % 0 lf 200 cb 200 cb 143 cb 84 cb 1011,5 hPa 0,0 l/m² 0,3 km/h (0 Bft) S-SO 164 ° 0 min 0,026 mm 0,0 UV-I 0 W/m² 9,7 °C 13,3 °C 1,6 km/h (1 Bft) 95,83 %
04.05.2026 01:05 23,1 °C 14,4 °C 13,3 °C 14,4 °C 14,7 °C 15,6 °C 15,6 °C 16,1 °C 15,6 °C 13,9 °C 44 % 77 % 0 lf 200 cb 200 cb 142 cb 84 cb 1011,5 hPa 0,0 l/m² 1,1 km/h (1 Bft) S-SO 164 ° 0 min 0,025 mm 0,0 UV-I 0 W/m² 10,4 °C 14,4 °C 3,2 km/h (1 Bft) 96,61 %
04.05.2026 00:05 23,1 °C 15,7 °C 14,4 °C 15,7 °C 15,8 °C 16,1 °C 16,1 °C 16,7 °C 15,6 °C 13,9 °C 45 % 72 % 0 lf 200 cb 200 cb 141 cb 84 cb 1011,5 hPa 0,0 l/m² 0,0 km/h (0 Bft) S-SO 164 ° 0 min 0,025 mm 0,0 UV-I 0 W/m² 10,7 °C 15,7 °C 0,0 km/h (0 Bft) 92,04 %
03.05.2026 23:05 23,1 °C 16,1 °C 15,0 °C 16,1 °C 16,1 °C 16,1 °C 16,1 °C 16,7 °C 15,6 °C 13,9 °C 45 % 71 % 0 lf 200 cb 200 cb 139 cb 83 cb 1011,5 hPa 0,0 l/m² 0,6 km/h (0 Bft) SO 128 ° 0 min 0,025 mm 0,0 UV-I 0 W/m² 10,8 °C 16,1 °C 3,2 km/h (1 Bft) 96,49 %
03.05.2026 22:05 23,1 °C 17,1 °C 15,6 °C 17,0 °C 17,1 °C 16,7 °C 16,7 °C 16,7 °C 15,6 °C 13,9 °C 44 % 59 % 2 lf 200 cb 200 cb 138 cb 83 cb 1011,4 hPa 0,0 l/m² 2,2 km/h (1 Bft) S 174 ° 0 min 0,051 mm 0,0 UV-I 0 W/m² 9,0 °C 17,1 °C 9,7 km/h (2 Bft) 98,31 %
03.05.2026 21:05 23,1 °C 18,8 °C 17,2 °C 18,8 °C 18,9 °C 16,7 °C 16,7 °C 16,7 °C 15,6 °C 13,9 °C 44 % 48 % 9 lf 200 cb 200 cb 138 cb 83 cb 1011,6 hPa 0,0 l/m² 3,2 km/h (1 Bft) N-NW 333 ° 0 min 0,025 mm 0,0 UV-I 0 W/m² 7,6 °C 18,8 °C 8,0 km/h (2 Bft) 99,10 %
03.05.2026 20:05 23,2 °C 20,1 °C 18,3 °C 20,1 °C 20,2 °C 17,2 °C 17,2 °C 16,7 °C 15,6 °C 13,9 °C 43 % 42 % 0 lf 200 cb 200 cb 137 cb 83 cb 1011,3 hPa 0,0 l/m² 2,7 km/h (1 Bft) N-NW 347 ° 0 min 0,051 mm 0,0 UV-I 18 W/m² 6,8 °C 20,1 °C 8,0 km/h (2 Bft) 96,58 %
03.05.2026 19:05 23,2 °C 21,3 °C 20,0 °C 21,3 °C 21,4 °C 17,2 °C 17,2 °C 16,7 °C 15,0 °C 13,9 °C 40 % 41 % 0 lf 200 cb 200 cb 135 cb 83 cb 1011,0 hPa 0,0 l/m² 5,4 km/h (1 Bft) NW 326 ° 0 min 0,127 mm 0,0 UV-I 69 W/m² 7,5 °C 21,3 °C 11,3 km/h (2 Bft) 94,07 %
03.05.2026 19:00 23,2 °C 21,4 °C 20,0 °C 21,4 °C 21,6 °C 17,8 °C 17,8 °C 16,7 °C 15,0 °C 13,9 °C 40 % 40 % 0 lf 200 cb 200 cb 135 cb 83 cb 1011,0 hPa 0,0 l/m² 4,3 km/h (1 Bft) N 9 ° 0 min 0,000 mm 0,0 UV-I 72 W/m² 7,2 °C 21,4 °C 8,0 km/h (2 Bft) 94,74 %
_ Min-Zeit 07:15 03:55 06:10 03:55 03:55 07:00 07:00 07:20 19:00 19:00 19:00 19:00 19:00 19:00 19:00 19:00 19:00 16:35 - 21:35 - - - - - - 20:00 04:05 00:05 18:05
Minimum _ 22,8 °C 10,6 °C 8,9 °C 10,6 °C 10,7 °C 13,3 °C 13,3 °C 15,0 °C 15,0 °C 13,9 °C 40 % 40 % 0 lf 200 cb 200 cb 135 cb 83 cb 1009,8 hPa - 0,0 km/h (0 Bft) - - - - - - 6,5 °C 10,6 °C 0,0 km/h (0 Bft) 89,08 %
_ Max-Zeit 19:00 14:40 14:10 14:40 14:40 19:00 19:00 19:00 19:25 19:00 11:50 03:25 22:15 19:00 19:00 15:50 14:00 03:35 19:00 15:10 - - 08:35 15:00 14:05 14:05 12:55 14:35 19:35 02:55
Maximum _ 23,2 °C 22,4 °C 22,8 °C 22,2 °C 22,4 °C 17,8 °C 17,8 °C 16,7 °C 15,6 °C 13,9 °C 46 % 85 % 15 lf 200 cb 200 cb 156 cb 86 cb 1011,9 hPa 0,0 l/m² 6,5 km/h
W-NW (2 Bft)
- - 5 min 0,355 mm 3,5 UV-I 636 W/m² 12,2 °C 22,3 °C 16,1 km/h
N (3 Bft)
100,00 %
Durchschnitt _ 23,0 °C 17,0 °C 16,0 °C 16,9 °C 17,1 °C 15,5 °C 15,5 °C 15,8 °C 15,3 °C 13,9 °C 44 % 63 % 0 lf 200 cb 200 cb 147 cb 84 cb 1011,3 hPa #0,0 l/m² 1,6 km/h (1 Bft) N-NW - #8:15 h #1,880 mm 1,5 UV-I 237 W/m² 9,5 °C 17,0 °C 4,5 km/h (1 Bft) 95,73 %
copy; 2009 Dieter Kraft